CST,Max TemperatureF,Mean TemperatureF,Min TemperatureF,Max Dew PointF,MeanDew PointF,Min DewpointF,Max Humidity, Mean Humidity, Min Humidity, Max Sea Level PressureIn, Mean Sea Level PressureIn, Min Sea Level PressureIn, Max VisibilityMiles, Mean VisibilityMiles, Min VisibilityMiles, Max Wind SpeedMPH, Mean Wind SpeedMPH, Max Gust SpeedMPH,PrecipitationIn, CloudCover, Events, WindDirDegrees
2012-11-1,43,35,26,41,27,20,89,69,48,30.17,30.11,30.04,10,10,5,22,12,26,0.00,4,,30
2012-11-2,39,33,26,28,24,21,81,68,54,30.16,30.12,30.06,10,10,10,14,7,17,0.00,6,,86
2012-11-3,42,38,33,34,30,28,96,79,62,30.26,30.20,30.12,10,9,3,16,7,20,0.01,8,Rain-Snow,293
2012-11-4,35,34,32,33,30,28,96,89,82,30.26,30.18,30.12,10,4,0,9,4,15,0.17,8,Fog-Rain-Snow,3
2012-11-5,39,37,35,36,34,32,92,86,79,30.26,30.10,29.83,10,6,1,20,8,26,0.02,8,,227
2012-11-6,52,40,27,37,31,26,86,65,44,30.11,30.01,29.83,10,10,10,32,15,41,0.00,2,,312
2012-11-7,51,35,19,34,28,17,92,70,48,30.14,29.99,29.78,10,10,10,22,10,28,0.00,0,,172
2012-11-8,48,39,30,36,31,28,85,74,62,30.11,29.99,29.78,10,10,8,29,12,37,0.00,4,,22
2012-11-9,42,37,31,36,30,27,92,84,75,30.12,30.01,29.82,10,10,8,21,15,28,0.00,8,,42
2012-11-10,43,34,24,40,35,18,96,87,78,29.76,29.60,29.49,10,4,1,31,14,38,0.17,8,Rain-Snow,2
2012-11-11,24,19,13,18,11,6,84,73,62,30.03,29.92,29.77,10,9,2,25,18,32,T,6,Snow,287
2012-11-12,27,20,12,13,9,4,80,68,55,30.30,30.20,30.03,10,10,5,20,13,24,T,2,Snow,267
2012-11-13,33,22,11,28,18,7,88,82,75,30.30,30.27,30.24,10,10,9,10,6,13,0.00,3,,182
2012-11-14,47,32,16,35,25,13,92,81,70,30.26,30.18,30.11,10,10,8,13,5,15,0.00,1,,181
2012-11-15,40,28,16,28,21,12,92,68,44,30.51,30.40,30.14,10,10,10,18,7,26,0.00,0,,358
2012-11-16,49,31,13,31,22,10,88,67,46,30.50,30.26,30.07,10,10,10,28,15,39,0.00,0,,170
2012-11-17,54,41,27,36,31,25,85,68,50,30.07,30.03,29.99,10,10,6,18,7,24,0.00,1,,159
2012-11-18,57,38,19,37,26,17,92,70,47,30.02,29.96,29.89,10,6,0,18,7,24,0.00,1,Fog,168
2012-11-19,58,41,23,35,29,21,92,66,40,30.22,30.05,29.89,10,7,0,14,5,18,0.00,0,Fog,335
2012-11-20,57,38,18,35,23,16,96,70,43,30.21,30.08,29.93,10,6,0,25,8,30,0.00,2,Fog,163
2012-11-21,62,44,26,34,29,24,92,63,34,29.94,29.76,29.59,10,10,9,16,7,21,0.00,0,,172
2012-11-22,48,35,21,35,25,11,85,70,54,30.39,30.02,29.60,10,9,5,35,18,43,0.01,6,Rain,324
2012-11-23,28,20,11,11,8,5,76,59,42,30.59,30.50,30.32,10,10,10,28,9,35,0.00,2,,339
2012-11-24,35,26,17,27,17,11,78,61,44,30.35,30.01,29.84,10,10,10,23,10,29,0.00,5,,190
2012-11-25,37,27,17,23,17,7,84,70,56,30.35,30.11,29.99,10,10,7,20,11,25,0.00,6,,321
2012-11-26,26,15,3,11,5,0,86,62,38,30.53,30.41,30.31,10,10,10,15,9,22,T,1,,280
2012-11-27,39,25,10,23,13,7,92,73,54,30.34,30.24,30.11,10,6,0,13,6,16,0.00,0,Fog,236
2012-11-28,42,26,10,26,13,7,92,68,43,30.35,30.21,30.05,10,5,0,20,6,24,0.00,2,Fog,172
2012-11-29,26,22,17,21,18,13,92,84,75,30.15,30.08,30.00,10,4,1,20,12,24,0.00,7,,31
2012-11-30,38,25,12,30,22,9,92,81,70,30.17,30.03,29.78,10,6,1,26,10,33,0.00,4,,146